< Typhoon 202119 2021 Season Typhoon 202121 >
Typhoon 202120 (MALOU)
General InformationTrack Information on Google MapsDetailed Wind InformationForecast History on Google MapsAccess Analytics MapList of All Images || NewsDisaster Info.WeblogTrackbackTyphoon FrontTwiphoonTyphoon Now!Typhoon ImaginationJMA Disaster Info. XMLResourceGoogle EarthGE AnimationAtom FeedGeoJSON
Detalied Best Track (Time Zone = UTC)
Year Month Day Hour Lat. Long. Pressure (hPa) Wind (kt) Class Image Chart
2021 10 23 06 11.3 141.5 1008 0 2 Image Chart
2021 10 23 12 11.4 140.9 1008 0 2 Image Chart
2021 10 23 18 11.4 140.6 1006 0 2 Image Chart
2021 10 24 00 12.0 140.4 1008 0 2 Image Chart
2021 10 24 06 12.6 140.2 1006 0 2 Image Chart
2021 10 24 12 14.1 139.7 1006 0 2 Image Chart
2021 10 24 18 15.4 139.0 1002 35 3 Image Chart
2021 10 25 00 16.1 139.0 1002 35 3 Image Chart
2021 10 25 06 17.6 138.5 1000 35 3 Image Chart
2021 10 25 12 18.6 138.6 1000 35 3 Image Chart
2021 10 25 18 19.0 138.9 998 40 3 Image Chart
2021 10 26 00 19.1 139.0 994 45 3 Image Chart
2021 10 26 06 19.4 139.3 992 50 4 Image Chart
2021 10 26 12 20.4 139.3 992 50 4 Image Chart
2021 10 26 18 20.7 139.3 985 55 4 Image Chart
2021 10 27 00 20.8 139.3 980 60 4 Image Chart
2021 10 27 06 21.3 139.4 980 60 4 Image Chart
2021 10 27 12 21.9 139.7 970 70 5 Image Chart
2021 10 27 18 22.7 140.0 965 75 5 Image Chart
2021 10 27 21 23.2 140.4 965 75 5 Image Chart
2021 10 28 00 23.6 140.7 965 75 5 Image Chart
2021 10 28 03 24.2 141.1 965 75 5 Image Chart
2021 10 28 06 24.9 141.5 965 75 5 Image Chart
2021 10 28 09 25.4 142.0 965 75 5 Image Chart
2021 10 28 12 26.3 142.5 970 70 5 Image Chart
2021 10 28 15 27.1 142.9 970 70 5 Image Chart
2021 10 28 18 28.0 143.4 970 70 5 Image Chart
2021 10 28 21 29.0 144.0 970 70 5 Image Chart
2021 10 29 00 29.7 144.6 970 70 5 Image Chart
2021 10 29 06 32.2 146.9 975 65 5 Image Chart
2021 10 29 12 33.7 149.9 980 0 6 Image Chart
2021 10 29 18 35.9 153.1 990 0 6 Image Chart
2021 10 30 00 38.3 157.9 992 0 6 Image Chart
2021 10 30 06 41.4 164.0 992 0 6 Image Chart
2021 10 30 12 44.3 169.0 984 0 6 Image Chart
2021 10 30 18 44.7 172.1 978 0 6 Image Chart
2021 10 31 00 44.1 175.0 974 0 6 Image Chart
2021 10 31 06 43.1 178.0 978 0 6 Image Chart
2021 10 31 12 42.1 181.8 984 0 6 Image Chart
Japan Meteorological Agency Best Track Data | Correction Date : 2022-01-19
< Typhoon 202119 2021 Season Typhoon 202121 >

Help